Time;durP1;ratioP1;P1;durP2;ratioP2;P2;SDS_P1;SDS_P2;PMS_P1;PMS_P2;Temp;Humidity;BMP_temperature;BMP_pressure;BME280_temperature;BME280_humidity;BME280_pressure;Samples;Min_cycle;Max_cycle;Signal;HPM_P1;HPM_P2
2021/12/12 00:00:37;;;;;;;4.03;2.70;;;20.20;46.60;;;;;;6245354;28;20473;-70
2021/12/12 00:03:42;;;;;;;3.20;2.40;;;20.20;46.50;;;;;;6245417;28;20022;-69
2021/12/12 00:06:55;;;;;;;3.90;2.60;;;20.20;46.50;;;;;;6245743;28;20021;-70
2021/12/12 00:10:04;;;;;;;3.92;2.78;;;20.20;46.60;;;;;;6245293;28;20140;-70
2021/12/12 00:13:12;;;;;;;3.65;2.30;;;20.20;46.60;;;;;;6245534;28;20099;-70
2021/12/12 00:16:14;;;;;;;3.70;2.50;;;20.20;46.50;;;;;;6243687;28;20033;-70
2021/12/12 00:19:15;;;;;;;3.63;2.30;;;20.20;46.60;;;;;;6259005;28;20409;-71
2021/12/12 00:22:21;;;;;;;3.67;2.70;;;20.20;46.50;;;;;;6269476;28;20063;-70
2021/12/12 00:25:21;;;;;;;3.05;2.45;;;20.20;46.70;;;;;;6245663;28;20025;-70
2021/12/12 00:28:22;;;;;;;3.25;2.53;;;20.20;46.60;;;;;;6244739;28;20071;-70
2021/12/12 00:31:25;;;;;;;3.58;2.60;;;20.20;46.60;;;;;;6239158;28;20033;-70
2021/12/12 00:34:28;;;;;;;2.65;2.13;;;20.20;46.60;;;;;;6244832;28;20668;-70
2021/12/12 00:37:29;;;;;;;3.03;2.40;;;20.20;46.50;;;;;;6255425;28;20024;-70
2021/12/12 00:40:40;;;;;;;3.47;2.53;;;20.20;46.60;;;;;;6269312;28;20025;-70
2021/12/12 00:43:46;;;;;;;3.15;2.50;;;20.20;46.60;;;;;;6249222;28;20021;-70
2021/12/12 00:46:48;;;;;;;3.08;2.60;;;20.20;46.60;;;;;;6244275;28;20075;-71
2021/12/12 00:49:50;;;;;;;3.10;2.22;;;20.20;46.60;;;;;;6244596;28;20037;-70
2021/12/12 00:52:51;;;;;;;3.63;2.60;;;20.20;46.60;;;;;;6255619;28;20383;-70
2021/12/12 00:55:54;;;;;;;3.40;2.40;;;20.20;46.60;;;;;;6268802;28;20040;-71
2021/12/12 00:58:55;;;;;;;2.83;2.33;;;20.20;46.60;;;;;;6247893;28;20079;-70
2021/12/12 01:01:56;;;;;;;3.80;2.80;;;20.20;46.60;;;;;;6246730;28;20061;-71
2021/12/12 01:05:00;;;;;;;4.20;2.75;;;20.20;46.60;;;;;;6267109;28;20494;-70
2021/12/12 01:08:03;;;;;;;3.08;2.45;;;20.20;46.50;;;;;;6265067;28;20108;-71
2021/12/12 01:11:08;;;;;;;2.78;2.08;;;20.20;46.50;;;;;;6268200;28;20028;-71
2021/12/12 01:14:13;;;;;;;3.25;2.38;;;20.20;46.50;;;;;;6257067;28;20057;-71
2021/12/12 01:17:26;;;;;;;2.70;2.40;;;20.20;46.70;;;;;;6252822;28;20036;-71
2021/12/12 01:20:46;;;;;;;3.47;2.72;;;20.20;46.60;;;;;;6267135;28;20048;-71
2021/12/12 01:23:59;;;;;;;3.33;2.38;;;20.20;46.60;;;;;;6266019;28;20032;-71
2021/12/12 01:27:03;;;;;;;3.13;2.40;;;20.20;46.70;;;;;;6266368;28;20028;-71
2021/12/12 01:30:07;;;;;;;3.05;2.45;;;20.20;46.70;;;;;;6265322;28;20029;-70
2021/12/12 01:33:09;;;;;;;3.20;2.17;;;20.20;46.70;;;;;;6258789;28;20025;-71
2021/12/12 01:36:23;;;;;;;3.03;2.28;;;20.20;46.70;;;;;;6266945;28;20056;-71
2021/12/12 01:39:27;;;;;;;2.95;2.30;;;20.20;46.70;;;;;;6267761;28;20029;-70
2021/12/12 01:42:35;;;;;;;2.83;2.22;;;20.20;46.60;;;;;;6257168;28;20051;-71
2021/12/12 01:45:45;;;;;;;3.50;2.58;;;20.20;46.60;;;;;;6242981;28;20061;-71
2021/12/12 01:48:51;;;;;;;3.65;2.65;;;20.20;46.60;;;;;;6262397;28;20485;-71
2021/12/12 01:51:53;;;;;;;3.05;2.35;;;20.20;46.60;;;;;;6267384;28;20429;-71
2021/12/12 01:55:04;;;;;;;3.22;2.42;;;20.20;46.60;;;;;;6266401;28;20446;-71
2021/12/12 01:58:15;;;;;;;3.22;2.20;;;20.20;46.70;;;;;;6265401;28;20227;-71
2021/12/12 02:01:26;;;;;;;2.83;2.20;;;20.20;46.70;;;;;;6267453;28;20032;-71
2021/12/12 02:04:35;;;;;;;2.78;2.25;;;20.20;46.70;;;;;;6267430;28;20052;-71
2021/12/12 02:07:40;;;;;;;2.88;2.55;;;20.20;46.70;;;;;;6258887;28;20052;-71
2021/12/12 02:10:59;;;;;;;3.57;2.57;;;20.20;46.70;;;;;;6242368;28;20476;-71
2021/12/12 02:14:09;;;;;;;3.30;2.45;;;20.20;46.60;;;;;;6252436;28;20787;-71
2021/12/12 02:17:25;;;;;;;2.60;2.13;;;20.20;46.60;;;;;;6242665;28;20052;-71
2021/12/12 02:20:37;;;;;;;2.72;2.28;;;20.20;46.60;;;;;;6265837;28;20035;-71
2021/12/12 02:37:10;;;;;;;2.42;1.98;;;20.20;46.70;;;;;;6271657;28;20072;-71
2021/12/12 02:40:21;;;;;;;3.38;2.53;;;20.20;46.80;;;;;;6271265;28;20099;-71
2021/12/12 02:43:26;;;;;;;2.60;2.08;;;20.20;46.70;;;;;;6271469;28;20568;-71
2021/12/12 02:46:32;;;;;;;2.30;1.95;;;20.10;46.60;;;;;;6270089;28;20028;-71
2021/12/12 02:49:42;;;;;;;3.10;2.30;;;20.20;46.80;;;;;;6269829;28;20048;-71
2021/12/12 02:52:49;;;;;;;3.17;2.13;;;20.10;46.70;;;;;;6261058;28;20105;-71
2021/12/12 02:55:57;;;;;;;2.97;2.33;;;20.20;46.80;;;;;;6246605;28;20033;-71
2021/12/12 02:58:59;;;;;;;3.22;2.40;;;20.20;46.70;;;;;;6265804;28;20017;-71
2021/12/12 03:02:06;;;;;;;2.83;2.25;;;20.20;46.80;;;;;;6270842;28;20894;-71
2021/12/12 03:05:08;;;;;;;2.72;2.20;;;20.10;46.60;;;;;;6271122;28;20050;-71
2021/12/12 03:08:10;;;;;;;2.92;2.53;;;20.20;46.70;;;;;;6269360;28;20025;-71
2021/12/12 03:11:10;;;;;;;3.50;2.35;;;20.10;46.60;;;;;;6270424;28;20100;-71
2021/12/12 03:14:11;;;;;;;3.33;2.30;;;20.10;46.60;;;;;;6269185;28;20418;-71
2021/12/12 03:17:20;;;;;;;2.47;1.85;;;20.20;46.70;;;;;;6270361;28;20477;-71
2021/12/12 03:20:31;;;;;;;2.85;2.22;;;20.10;46.60;;;;;;6269257;28;20110;-71
2021/12/12 03:23:34;;;;;;;2.22;1.90;;;20.10;46.70;;;;;;6259970;28;20051;-71
2021/12/12 03:26:36;;;;;;;2.85;2.38;;;20.10;46.70;;;;;;6249607;28;20489;-71
2021/12/12 03:29:39;;;;;;;2.47;2.15;;;20.10;46.70;;;;;;6270390;28;20497;-71
2021/12/12 03:32:40;;;;;;;2.20;1.80;;;20.10;46.70;;;;;;6258961;28;20500;-71
2021/12/12 03:35:44;;;;;;;2.45;1.92;;;20.10;46.70;;;;;;6269345;28;20029;-71
2021/12/12 03:38:55;;;;;;;2.67;2.15;;;20.10;46.60;;;;;;6268442;28;20021;-71
2021/12/12 03:41:58;;;;;;;2.65;1.98;;;20.10;46.60;;;;;;6270347;28;20075;-70
2021/12/12 03:45:00;;;;;;;2.47;2.00;;;20.10;46.70;;;;;;6269933;28;20442;-71
2021/12/12 03:48:12;;;;;;;2.25;1.85;;;20.20;46.80;;;;;;6268417;28;20053;-72
2021/12/12 03:51:16;;;;;;;2.40;1.90;;;20.10;46.70;;;;;;6269449;28;20082;-70
2021/12/12 03:54:17;;;;;;;2.05;1.85;;;20.20;46.80;;;;;;6246043;28;20033;-70
2021/12/12 03:57:20;;;;;;;2.60;1.90;;;20.10;46.70;;;;;;6250411;28;20111;-71
2021/12/12 04:00:42;;;;;;;2.22;1.98;;;20.10;46.70;;;;;;6270500;28;20511;-70
2021/12/12 04:03:45;;;;;;;2.78;2.00;;;20.10;46.70;;;;;;6253014;28;20540;-71
2021/12/12 04:06:48;;;;;;;2.75;2.00;;;20.10;46.70;;;;;;6245527;28;20033;-70
2021/12/12 04:09:50;;;;;;;2.58;1.98;;;20.10;46.70;;;;;;6245485;28;20434;-70
2021/12/12 04:12:52;;;;;;;3.40;2.20;;;20.10;46.70;;;;;;6245057;28;20122;-70
2021/12/12 04:15:54;;;;;;;2.60;1.83;;;20.10;46.70;;;;;;6245246;28;20495;-70
2021/12/12 04:18:57;;;;;;;2.63;1.88;;;20.10;46.70;;;;;;6243735;28;20084;-70
2021/12/12 04:21:59;;;;;;;2.08;1.73;;;20.10;46.70;;;;;;6244729;28;20037;-70
2021/12/12 04:25:00;;;;;;;2.00;1.60;;;20.10;46.70;;;;;;6248748;28;20367;-70
2021/12/12 04:28:01;;;;;;;1.90;1.65;;;20.10;46.70;;;;;;6251044;28;20105;-70
2021/12/12 04:31:02;;;;;;;3.03;2.22;;;20.10;46.70;;;;;;6243810;28;20060;-70
2021/12/12 04:34:03;;;;;;;3.55;1.80;;;20.10;46.70;;;;;;6219004;28;20060;-70
2021/12/12 04:37:06;;;;;;;2.45;1.92;;;20.10;46.70;;;;;;6235421;28;20397;-70
2021/12/12 04:40:14;;;;;;;2.33;1.92;;;20.10;46.70;;;;;;6269370;28;20053;-70
2021/12/12 04:43:15;;;;;;;2.30;1.85;;;20.10;46.70;;;;;;6251125;28;20025;-71
2021/12/12 04:46:23;;;;;;;2.22;1.80;;;20.10;46.70;;;;;;6243781;28;20064;-70
2021/12/12 04:53:06;;;;;;;1.60;1.50;;;20.10;46.70;;;;;;6244136;28;20391;-70
2021/12/12 04:56:17;;;;;;;3.10;1.90;;;20.10;46.70;;;;;;6243273;28;20427;-70
2021/12/12 04:59:45;;;;;;;2.20;1.90;;;20.10;46.60;;;;;;6244152;28;20018;-70
2021/12/12 05:03:21;;;;;;;2.50;2.00;;;20.10;46.70;;;;;;6244098;28;20040;-70
2021/12/12 05:06:26;;;;;;;2.55;1.98;;;20.10;46.70;;;;;;6241902;28;20033;-70
2021/12/12 05:09:49;;;;;;;2.80;1.95;;;20.10;46.70;;;;;;6244170;28;20144;-70
2021/12/12 05:13:06;;;;;;;1.77;1.63;;;20.10;46.70;;;;;;6243640;28;20073;-70
2021/12/12 05:16:12;;;;;;;2.28;1.88;;;20.10;46.60;;;;;;6243868;28;20390;-71
2021/12/12 05:19:22;;;;;;;1.90;1.70;;;20.10;46.60;;;;;;6262849;28;20155;-70
2021/12/12 05:22:32;;;;;;;2.90;2.00;;;20.10;46.50;;;;;;6265700;28;20036;-70
2021/12/12 05:25:44;;;;;;;3.00;1.90;;;20.10;46.50;;;;;;6243733;28;20033;-70
2021/12/12 05:29:02;;;;;;;2.83;1.60;;;20.10;46.50;;;;;;6243380;28;20071;-70
2021/12/12 05:32:06;;;;;;;1.80;1.60;;;20.10;46.50;;;;;;6242413;28;20490;-70
2021/12/12 05:35:10;;;;;;;1.98;1.75;;;20.10;46.50;;;;;;6242287;28;20116;-70
2021/12/12 05:38:11;;;;;;;2.65;2.00;;;20.10;46.50;;;;;;6260235;28;20108;-70
2021/12/12 05:41:12;;;;;;;2.08;1.67;;;20.10;46.50;;;;;;6268334;28;20482;-70
2021/12/12 05:44:13;;;;;;;1.80;1.60;;;20.10;46.40;;;;;;6243845;28;20021;-71
2021/12/12 05:47:14;;;;;;;2.03;1.60;;;20.20;46.50;;;;;;6243279;28;20438;-70
2021/12/12 05:50:16;;;;;;;2.08;1.63;;;20.10;46.40;;;;;;6243645;28;20721;-70
2021/12/12 05:53:17;;;;;;;2.08;1.83;;;20.20;46.50;;;;;;6243575;28;20080;-70
2021/12/12 05:56:22;;;;;;;2.42;1.90;;;20.20;46.50;;;;;;6242005;28;20057;-70
2021/12/12 05:59:24;;;;;;;1.95;1.55;;;20.20;46.40;;;;;;6267753;28;20017;-70
2021/12/12 06:02:26;;;;;;;2.95;1.80;;;20.20;46.50;;;;;;6258174;28;20028;-70
2021/12/12 06:05:30;;;;;;;1.73;1.55;;;20.20;46.40;;;;;;6247246;28;20033;-70
2021/12/12 06:08:33;;;;;;;2.53;1.93;;;20.20;46.40;;;;;;6257699;28;20060;-70
2021/12/12 06:11:36;;;;;;;2.13;1.80;;;20.20;46.40;;;;;;6271783;28;20267;-70
2021/12/12 06:14:38;;;;;;;2.00;1.73;;;20.20;46.40;;;;;;6254545;28;20557;-70
2021/12/12 06:17:40;;;;;;;1.92;1.60;;;20.20;46.70;;;;;;6247944;28;20022;-72
2021/12/12 06:20:41;;;;;;;2.42;1.75;;;20.20;46.40;;;;;;6246603;28;20021;-70
2021/12/12 06:23:42;;;;;;;1.90;1.50;;;20.20;46.40;;;;;;6247867;28;20060;-70
2021/12/12 06:26:42;;;;;;;2.40;1.80;;;20.20;46.40;;;;;;6247633;28;20108;-70
2021/12/12 06:29:47;;;;;;;1.90;1.55;;;20.20;46.40;;;;;;6246438;28;20442;-71
2021/12/12 06:32:49;;;;;;;2.33;1.75;;;20.20;46.40;;;;;;6238647;28;20079;-71
2021/12/12 06:35:52;;;;;;;2.65;1.77;;;20.20;46.40;;;;;;6247548;28;20100;-70
2021/12/12 06:38:57;;;;;;;2.13;1.80;;;20.20;46.40;;;;;;6247352;28;20026;-70
2021/12/12 06:41:58;;;;;;;2.05;1.70;;;20.20;46.40;;;;;;6247528;28;20080;-71
2021/12/12 06:45:00;;;;;;;2.00;1.60;;;20.20;46.40;;;;;;6247418;28;20034;-70
2021/12/12 06:48:04;;;;;;;2.17;1.70;;;20.20;46.40;;;;;;6247077;28;20037;-70
2021/12/12 06:51:04;;;;;;;1.80;1.60;;;20.20;46.40;;;;;;6247231;28;20034;-70
2021/12/12 06:54:06;;;;;;;2.47;1.75;;;20.20;46.40;;;;;;6257363;28;20371;-70
2021/12/12 06:57:13;;;;;;;1.85;1.50;;;20.20;46.30;;;;;;6267187;28;20108;-71
2021/12/12 07:00:18;;;;;;;2.13;1.50;;;20.20;46.40;;;;;;6246637;28;20030;-70
2021/12/12 07:03:19;;;;;;;1.50;1.40;;;20.20;46.40;;;;;;6256366;28;20044;-70
2021/12/12 07:06:23;;;;;;;1.73;1.48;;;20.20;46.40;;;;;;6246763;28;20063;-70
2021/12/12 07:09:24;;;;;;;2.05;1.70;;;20.20;46.40;;;;;;6246808;28;20038;-70
2021/12/12 07:12:26;;;;;;;2.13;1.60;;;20.20;46.40;;;;;;6245223;28;20025;-70
2021/12/12 07:15:31;;;;;;;2.28;1.60;;;20.20;46.40;;;;;;6245632;28;20132;-71
2021/12/12 07:18:34;;;;;;;2.45;1.73;;;20.20;46.40;;;;;;6249547;28;20033;-70
2021/12/12 07:21:35;;;;;;;2.15;1.45;;;20.20;46.30;;;;;;6245408;28;20108;-70
2021/12/12 07:24:37;;;;;;;2.15;1.55;;;20.20;46.30;;;;;;6246440;28;20123;-70
2021/12/12 07:27:38;;;;;;;2.30;1.75;;;20.20;46.30;;;;;;6246820;28;20022;-70
2021/12/12 07:30:39;;;;;;;2.42;1.80;;;20.20;46.40;;;;;;6246560;28;20021;-70
2021/12/12 07:33:40;;;;;;;2.03;1.50;;;20.20;46.40;;;;;;6246184;28;20330;-70
2021/12/12 07:36:46;;;;;;;2.72;1.65;;;20.20;46.30;;;;;;6245914;28;20037;-70
2021/12/12 07:39:48;;;;;;;1.52;1.33;;;20.20;46.30;;;;;;6246192;28;20026;-71
2021/12/12 07:43:00;;;;;;;1.67;1.30;;;20.20;46.40;;;;;;6247424;28;20029;-70
2021/12/12 07:46:04;;;;;;;2.28;1.70;;;20.20;46.40;;;;;;6247903;28;20667;-70
2021/12/12 07:49:05;;;;;;;1.52;1.35;;;20.20;46.40;;;;;;6245042;28;20048;-70
2021/12/12 07:52:09;;;;;;;2.55;1.50;;;20.20;46.40;;;;;;6245296;28;20131;-70
2021/12/12 07:55:10;;;;;;;2.17;1.60;;;20.20;46.30;;;;;;6270029;28;20033;-70
2021/12/12 07:58:13;;;;;;;2.05;1.45;;;20.20;46.30;;;;;;6269669;28;20033;-70
2021/12/12 08:01:14;;;;;;;1.85;1.33;;;20.20;46.40;;;;;;6270273;28;20104;-70
2021/12/12 08:04:16;;;;;;;1.80;1.52;;;20.20;46.30;;;;;;6269814;28;20029;-70
2021/12/12 08:07:20;;;;;;;1.58;1.40;;;20.20;46.30;;;;;;6268372;28;20523;-70
2021/12/12 08:10:21;;;;;;;2.00;1.80;;;20.20;46.30;;;;;;6269329;28;20032;-71
2021/12/12 08:13:21;;;;;;;1.45;1.33;;;20.20;46.30;;;;;;6260898;28;20065;-71
2021/12/12 08:16:24;;;;;;;1.83;1.50;;;20.20;46.30;;;;;;6244044;28;20065;-71
2021/12/12 08:19:26;;;;;;;1.92;1.42;;;20.20;46.40;;;;;;6244960;28;20029;-71
2021/12/12 08:22:27;;;;;;;1.73;1.50;;;20.20;46.40;;;;;;6261836;28;20021;-71
2021/12/12 08:25:28;;;;;;;2.15;1.67;;;20.20;46.30;;;;;;6244704;28;20052;-70
2021/12/12 08:28:30;;;;;;;1.85;1.50;;;20.20;46.30;;;;;;6244987;28;20033;-70
2021/12/12 08:31:31;;;;;;;1.55;1.38;;;20.20;46.30;;;;;;6240252;28;20021;-71
2021/12/12 08:34:31;;;;;;;1.65;1.15;;;20.20;46.30;;;;;;6268374;28;20070;-71
2021/12/12 08:37:32;;;;;;;1.50;1.33;;;20.20;46.30;;;;;;6256318;28;20029;-71
2021/12/12 08:40:37;;;;;;;1.92;1.30;;;20.20;46.30;;;;;;6243585;28;20030;-70
2021/12/12 08:43:39;;;;;;;1.50;1.30;;;20.20;46.30;;;;;;6244791;28;20045;-70
2021/12/12 08:46:44;;;;;;;1.85;1.50;;;20.20;46.30;;;;;;6243384;28;20033;-70
2021/12/12 08:49:45;;;;;;;2.42;1.60;;;20.20;46.30;;;;;;6244799;28;20100;-70
2021/12/12 08:52:48;;;;;;;1.50;1.27;;;20.20;46.30;;;;;;6254371;28;20032;-71
2021/12/12 08:55:51;;;;;;;2.38;1.50;;;20.20;46.30;;;;;;6268690;28;20021;-70
2021/12/12 08:58:54;;;;;;;1.92;1.42;;;20.20;46.30;;;;;;6249780;28;20053;-70
2021/12/12 09:01:59;;;;;;;1.60;1.30;;;20.20;46.30;;;;;;6242982;28;20483;-71
2021/12/12 09:05:05;;;;;;;2.17;1.60;;;20.20;46.30;;;;;;6244458;28;20055;-70
2021/12/12 09:08:11;;;;;;;2.58;1.63;;;20.20;46.30;;;;;;6243794;28;20031;-70
2021/12/12 09:11:29;;;;;;;2.30;1.38;;;20.20;46.40;;;;;;6244154;28;20498;-70
2021/12/12 09:14:47;;;;;;;2.10;1.50;;;20.20;46.30;;;;;;6243909;28;20053;-71
2021/12/12 09:17:58;;;;;;;1.92;1.52;;;20.20;46.30;;;;;;6242443;28;20542;-71
2021/12/12 09:21:07;;;;;;;2.00;1.23;;;20.20;46.30;;;;;;6244204;28;20513;-70
2021/12/12 09:24:24;;;;;;;1.90;1.48;;;20.20;46.30;;;;;;6243739;28;20033;-70
2021/12/12 09:27:31;;;;;;;2.28;1.60;;;20.20;46.30;;;;;;6255189;28;20508;-70
2021/12/12 09:30:32;;;;;;;1.98;1.40;;;20.20;46.30;;;;;;6268461;28;20025;-70
2021/12/12 09:33:45;;;;;;;1.92;1.42;;;20.20;46.30;;;;;;6246280;28;20017;-70
2021/12/12 09:37:01;;;;;;;1.50;1.40;;;20.20;46.40;;;;;;6241993;28;20025;-71
2021/12/12 09:40:28;;;;;;;1.75;1.58;;;20.20;46.40;;;;;;6242057;28;20021;-70
2021/12/12 09:43:53;;;;;;;1.85;1.40;;;20.20;46.40;;;;;;6248239;28;20031;-70
2021/12/12 09:47:25;;;;;;;1.60;1.48;;;20.20;46.40;;;;;;6243308;28;20030;-71
2021/12/12 09:51:16;;;;;;;1.40;1.20;;;20.20;46.50;;;;;;6241963;28;20065;-70
2021/12/12 09:54:26;;;;;;;1.88;1.30;;;20.20;46.50;;;;;;6243423;28;20124;-71
2021/12/12 09:57:30;;;;;;;1.17;1.08;;;20.20;46.50;;;;;;6243218;28;20029;-70
2021/12/12 10:00:49;;;;;;;1.75;1.30;;;20.20;46.60;;;;;;6243450;28;20551;-70
2021/12/12 10:03:55;;;;;;;1.55;1.30;;;20.20;46.50;;;;;;6241840;28;20022;-70
2021/12/12 10:07:14;;;;;;;1.38;1.08;;;20.20;46.60;;;;;;6242051;28;20506;-70
2021/12/12 10:10:31;;;;;;;1.70;1.20;;;20.20;46.60;;;;;;6265268;28;20024;-70
2021/12/12 10:13:41;;;;;;;1.40;1.10;;;20.20;46.60;;;;;;6259109;28;20076;-70
2021/12/12 10:16:51;;;;;;;1.42;1.20;;;20.20;46.60;;;;;;6262886;28;20029;-70
2021/12/12 10:20:03;;;;;;;1.48;1.30;;;20.30;46.70;;;;;;6248636;28;20018;-70
2021/12/12 10:23:33;;;;;;;1.80;1.30;;;20.20;46.70;;;;;;6243323;28;20909;-71
2021/12/12 10:26:48;;;;;;;1.42;1.23;;;20.30;46.70;;;;;;6242745;28;20030;-70
2021/12/12 10:29:54;;;;;;;;;;;20.20;46.70;;;;;;6243572;28;20025;-70
2021/12/12 10:33:12;;;;;;;1.65;1.25;;;20.20;46.60;;;;;;6234339;28;20529;-71
2021/12/12 10:36:22;;;;;;;1.40;1.20;;;20.30;46.80;;;;;;6256367;28;20043;-70
2021/12/12 10:39:37;;;;;;;1.73;1.50;;;20.30;46.80;;;;;;6242582;28;20022;-71
2021/12/12 10:42:49;;;;;;;1.92;1.50;;;20.30;46.80;;;;;;6242743;28;20057;-70
2021/12/12 10:45:58;;;;;;;1.38;1.15;;;20.30;46.80;;;;;;6244858;28;20407;-70
2021/12/12 10:49:23;;;;;;;2.15;1.35;;;20.20;46.70;;;;;;6246067;28;20021;-70
2021/12/12 10:52:47;;;;;;;2.33;1.52;;;20.30;46.80;;;;;;6247046;28;20124;-70
2021/12/12 10:56:01;;;;;;;1.50;1.20;;;20.30;46.80;;;;;;6247168;28;20112;-70
2021/12/12 10:59:19;;;;;;;1.20;1.00;;;20.30;46.80;;;;;;6245657;28;20045;-70
2021/12/12 11:02:30;;;;;;;1.88;1.50;;;20.30;46.80;;;;;;6246940;28;20018;-70
2021/12/12 11:05:45;;;;;;;2.17;1.10;;;20.30;46.80;;;;;;6247494;28;20064;-70
2021/12/12 11:08:51;;;;;;;1.20;1.10;;;20.30;46.80;;;;;;6246620;28;20034;-70
2021/12/12 11:12:06;;;;;;;1.55;1.10;;;20.30;46.80;;;;;;6245887;28;20530;-70
2021/12/12 11:15:19;;;;;;;1.52;1.20;;;20.30;47.50;;;;;;6247685;28;20054;-70
2021/12/12 11:18:29;;;;;;;1.58;1.23;;;20.30;46.80;;;;;;6261424;28;20029;-70
2021/12/12 11:21:37;;;;;;;1.65;1.00;;;20.30;46.80;;;;;;6246558;28;20049;-73
2021/12/12 11:24:42;;;;;;;1.45;1.08;;;20.30;46.80;;;;;;6246476;28;20105;-70
2021/12/12 11:27:53;;;;;;;1.70;1.40;;;20.30;46.80;;;;;;6244991;28;20028;-70
2021/12/12 11:31:24;;;;;;;1.73;1.20;;;20.30;46.80;;;;;;6246042;28;20075;-70
2021/12/12 11:34:27;;;;;;;1.35;1.02;;;20.30;46.80;;;;;;6246490;28;20021;-70
2021/12/12 11:37:42;;;;;;;1.73;1.33;;;20.30;46.80;;;;;;6246216;28;20508;-70
2021/12/12 11:41:10;;;;;;;1.40;1.30;;;20.30;46.90;;;;;;6244794;28;20025;-71
2021/12/12 11:44:26;;;;;;;1.83;1.30;;;20.30;46.80;;;;;;6258813;28;20302;-70
2021/12/12 11:47:55;;;;;;;1.58;1.15;;;20.30;46.90;;;;;;6260631;28;20086;-70
2021/12/12 11:51:03;;;;;;;1.63;1.20;;;20.30;46.80;;;;;;6270450;28;20033;-71
2021/12/12 11:54:12;;;;;;;3.70;1.10;;;20.30;46.80;;;;;;6249316;28;20060;-70
2021/12/12 11:57:25;;;;;;;1.45;1.20;;;20.30;46.80;;;;;;6248541;28;20446;-70
2021/12/12 12:00:36;;;;;;;1.65;1.33;;;20.30;46.80;;;;;;6270142;28;20025;-70
2021/12/12 12:04:06;;;;;;;1.30;1.02;;;20.30;46.80;;;;;;6254361;28;20017;-70
2021/12/12 12:07:16;;;;;;;1.73;1.23;;;20.30;46.90;;;;;;6245536;28;20033;-70
2021/12/12 12:10:42;;;;;;;2.15;1.42;;;20.30;46.80;;;;;;6243861;28;20159;-70
2021/12/12 12:13:54;;;;;;;1.52;1.20;;;20.30;46.80;;;;;;6255406;28;20045;-70
2021/12/12 12:17:24;;;;;;;1.70;1.20;;;20.30;46.90;;;;;;6270009;28;20056;-70
2021/12/12 12:20:57;;;;;;;2.30;1.30;;;20.30;46.90;;;;;;6246352;28;20513;-71
2021/12/12 12:24:13;;;;;;;1.63;1.13;;;20.30;46.80;;;;;;6243925;28;20578;-69
2021/12/12 12:27:18;;;;;;;1.27;1.08;;;20.30;46.90;;;;;;6244621;28;20535;-70
2021/12/12 12:30:30;;;;;;;1.90;1.20;;;20.30;46.90;;;;;;6259034;28;20045;-70
2021/12/12 12:34:35;;;;;;;2.55;1.60;;;20.30;46.90;;;;;;6244812;28;20136;-70
2021/12/12 12:38:04;;;;;;;1.33;1.23;;;20.30;46.90;;;;;;6231394;28;20128;-70
2021/12/12 12:41:29;;;;;;;1.23;0.95;;;20.30;46.90;;;;;;6243617;28;20021;-70
2021/12/12 12:44:53;;;;;;;1.23;1.13;;;20.30;46.90;;;;;;6248274;28;20032;-69
2021/12/12 12:48:12;;;;;;;2.08;1.30;;;20.30;46.90;;;;;;6256626;28;20025;-70
2021/12/12 12:51:22;;;;;;;2.22;1.25;;;20.30;46.90;;;;;;6244778;28;20101;-70
2021/12/12 12:54:36;;;;;;;2.28;1.23;;;20.30;46.90;;;;;;6244738;28;20114;-70
2021/12/12 12:57:40;;;;;;;1.40;1.13;;;20.30;46.80;;;;;;6244242;28;20034;-70
2021/12/12 13:00:43;;;;;;;3.22;1.45;;;20.30;46.80;;;;;;6243326;28;20049;-70
2021/12/12 13:04:21;;;;;;;1.25;1.10;;;20.30;46.80;;;;;;6244478;28;20017;-70
2021/12/12 13:07:40;;;;;;;1.30;1.20;;;20.30;46.90;;;;;;6229580;28;20494;-70
2021/12/12 13:10:43;;;;;;;1.60;1.13;;;20.30;46.80;;;;;;6243404;28;20683;-69
2021/12/12 13:14:15;;;;;;;2.03;1.33;;;20.30;46.80;;;;;;6242908;28;20045;-69
2021/12/12 13:17:21;;;;;;;3.80;1.35;;;20.30;46.90;;;;;;6242571;28;20025;-69
2021/12/12 13:20:43;;;;;;;3.13;0.90;;;20.30;46.90;;;;;;6242830;28;20665;-69
2021/12/12 13:23:55;;;;;;;2.38;1.33;;;20.30;46.90;;;;;;6244047;28;20463;-69
2021/12/12 13:27:12;;;;;;;1.15;1.02;;;20.30;46.90;;;;;;6242480;28;20038;-70
2021/12/12 13:30:29;;;;;;;1.30;1.02;;;20.30;46.90;;;;;;6241507;28;20512;-71
2021/12/12 13:33:47;;;;;;;1.60;1.30;;;20.30;46.90;;;;;;6258282;28;20025;-70
2021/12/12 13:37:02;;;;;;;1.80;1.10;;;20.30;46.90;;;;;;6267982;28;20108;-70
2021/12/12 13:40:34;;;;;;;1.88;1.30;;;20.30;46.90;;;;;;6243894;28;20513;-71
2021/12/12 13:44:03;;;;;;;1.58;1.27;;;20.30;46.90;;;;;;6243493;28;20087;-71
2021/12/12 13:47:42;;;;;;;1.38;1.10;;;20.30;46.80;;;;;;6259196;28;20486;-70
2021/12/12 13:51:14;;;;;;;2.67;1.30;;;20.30;46.90;;;;;;6173789;28;20069;-71
2021/12/12 13:54:24;;;;;;;2.45;1.27;;;20.30;47.00;;;;;;6247075;28;20029;-71
2021/12/12 13:57:27;;;;;;;5.18;1.58;;;20.40;47.00;;;;;;6255897;28;20030;-71
2021/12/12 14:00:51;;;;;;;6.10;1.77;;;20.40;47.00;;;;;;6239770;28;20578;-71
2021/12/12 14:04:08;;;;;;;2.72;1.42;;;20.40;47.00;;;;;;6247102;28;20021;-71
2021/12/12 14:07:11;;;;;;;1.95;1.10;;;20.40;47.00;;;;;;6239980;28;20025;-68
2021/12/12 14:10:19;;;;;;;1.98;1.27;;;20.40;47.00;;;;;;6241255;28;20095;-69
2021/12/12 14:13:39;;;;;;;3.85;2.13;;;20.40;47.00;;;;;;6247729;28;20069;-69
2021/12/12 14:16:44;;;;;;;3.42;2.00;;;20.30;46.20;;;;;;6242297;28;20029;-70
2021/12/12 14:19:55;;;;;;;15.10;1.98;;;20.30;46.30;;;;;;6245075;28;20064;-68
2021/12/12 14:22:57;;;;;;;17.10;1.83;;;20.40;46.80;;;;;;6242217;28;20029;-68
2021/12/12 14:26:16;;;;;;;12.20;2.22;;;20.40;46.80;;;;;;6254739;28;20021;-68
2021/12/12 14:29:24;;;;;;;7.45;1.98;;;20.40;46.70;;;;;;6269466;28;20040;-68
2021/12/12 14:32:31;;;;;;;5.40;2.00;;;20.40;46.80;;;;;;6257975;28;20029;-67
2021/12/12 14:35:41;;;;;;;9.50;1.88;;;20.40;46.80;;;;;;6253731;28;20036;-69
2021/12/12 14:38:43;;;;;;;5.88;1.95;;;20.40;46.90;;;;;;6245473;28;20033;-68
2021/12/12 14:41:56;;;;;;;9.90;2.10;;;20.40;46.90;;;;;;6245787;28;20022;-68
2021/12/12 14:45:05;;;;;;;7.20;2.03;;;20.40;47.00;;;;;;6251615;28;20139;-68
2021/12/12 14:48:12;;;;;;;7.32;1.80;;;20.40;47.00;;;;;;6245423;28;20026;-68
2021/12/12 14:51:19;;;;;;;3.65;1.55;;;20.40;47.00;;;;;;6261931;28;20675;-66
2021/12/12 14:54:23;;;;;;;4.80;1.70;;;20.40;47.00;;;;;;6259000;28;20021;-67
2021/12/12 14:57:33;;;;;;;4.32;1.90;;;20.30;47.20;;;;;;6245109;28;20116;-66
2021/12/12 15:00:42;;;;;;;3.97;2.80;;;20.30;46.60;;;;;;6256333;28;20031;-66
2021/12/12 15:03:48;;;;;;;7.10;4.07;;;20.20;45.20;;;;;;6263341;28;20119;-66
2021/12/12 15:07:12;;;;;;;6.65;3.63;;;20.20;44.40;;;;;;6248644;28;20674;-66
2021/12/12 15:10:19;;;;;;;7.50;3.55;;;20.20;43.80;;;;;;6230155;28;20021;-66
2021/12/12 15:13:23;;;;;;;14.20;4.40;;;20.20;44.80;;;;;;6244575;28;20427;-65
2021/12/12 15:16:35;;;;;;;9.90;4.03;;;20.20;44.40;;;;;;6244725;28;20036;-65
2021/12/12 15:19:48;;;;;;;12.20;5.50;;;20.20;43.60;;;;;;6248348;28;20022;-67
2021/12/12 15:22:54;;;;;;;10.57;4.47;;;20.10;43.10;;;;;;6257675;28;20064;-67
2021/12/12 15:26:07;;;;;;;12.32;4.88;;;20.10;42.00;;;;;;6245101;28;20079;-68
2021/12/12 15:29:10;;;;;;;13.32;4.18;;;20.10;41.20;;;;;;6229235;28;20017;-67
2021/12/12 15:32:18;;;;;;;12.10;3.80;;;20.20;41.30;;;;;;6253093;28;20028;-67
2021/12/12 15:35:24;;;;;;;8.40;3.95;;;20.20;41.60;;;;;;6258103;28;20631;-67
2021/12/12 15:38:28;;;;;;;8.65;3.13;;;20.20;42.20;;;;;;6244882;28;20026;-67
2021/12/12 15:41:33;;;;;;;6.88;2.90;;;20.20;42.60;;;;;;6253493;28;20017;-68
2021/12/12 15:44:38;;;;;;;6.20;2.92;;;20.20;42.90;;;;;;6244927;28;20022;-67
2021/12/12 15:47:41;;;;;;;8.95;2.53;;;20.20;43.10;;;;;;6243441;28;20030;-67
2021/12/12 15:50:43;;;;;;;6.65;2.70;;;20.20;43.40;;;;;;6242978;28;20022;-68
2021/12/12 15:53:58;;;;;;;4.72;2.55;;;20.20;43.50;;;;;;6262672;28;20086;-67
2021/12/12 15:57:07;;;;;;;;;;;20.20;43.70;;;;;;6268350;28;20033;-67
2021/12/12 16:00:24;;;;;;;5.65;2.53;;;20.20;43.90;;;;;;6254354;28;20007;-67
2021/12/12 16:03:27;;;;;;;15.52;2.75;;;20.20;44.10;;;;;;6258321;28;20043;-67
2021/12/12 16:06:40;;;;;;;10.43;2.83;;;20.20;44.70;;;;;;6250525;28;20032;-67
2021/12/12 16:09:46;;;;;;;7.13;2.38;;;20.20;44.50;;;;;;6243701;28;20075;-66
2021/12/12 16:12:49;;;;;;;4.68;2.40;;;20.20;44.60;;;;;;6242890;28;20053;-66
2021/12/12 16:15:52;;;;;;;7.15;2.30;;;20.20;44.70;;;;;;6243893;28;20570;-68
2021/12/12 16:19:01;;;;;;;5.15;2.47;;;20.20;44.80;;;;;;6243201;28;20066;-67
2021/12/12 16:22:05;;;;;;;7.85;2.17;;;20.20;44.90;;;;;;6260978;28;20070;-67
2021/12/12 16:25:12;;;;;;;6.83;2.30;;;20.20;45.00;;;;;;6243131;28;20029;-67
2021/12/12 16:28:18;;;;;;;4.18;1.83;;;20.20;45.10;;;;;;6261470;28;20120;-67
2021/12/12 16:31:20;;;;;;;6.72;2.35;;;20.20;45.20;;;;;;6242794;28;20110;-66
2021/12/12 16:34:27;;;;;;;4.78;2.60;;;20.20;45.30;;;;;;6243388;28;20021;-66
2021/12/12 16:37:31;;;;;;;7.85;2.30;;;20.20;45.30;;;;;;6242826;28;20080;-67
2021/12/12 16:40:37;;;;;;;5.22;2.40;;;20.20;45.40;;;;;;6242326;28;20510;-67